Time;durP1;ratioP1;P1;durP2;ratioP2;P2;SDS_P1;SDS_P2;PMS_P1;PMS_P2;Temp;Humidity;BMP_temperature;BMP_pressure;BME280_temperature;BME280_humidity;BME280_pressure;Samples;Min_cycle;Max_cycle;Signal;HPM_P1;HPM_P2
2021/07/07 00:01:31;;;;;;;13.80;10.25;;;;;;;21.57;94.57;99441.38;3474756;28;20075;-43
2021/07/07 00:03:13;;;;;;;14.93;10.27;;;;;;;21.57;93.90;99441.38;3470949;28;20140;-44
2021/07/07 00:04:54;;;;;;;14.48;10.23;;;;;;;21.56;94.13;99444.94;3478128;28;20053;-43
2021/07/07 00:06:35;;;;;;;12.60;9.77;;;;;;;21.58;97.55;99440.47;3484536;28;20143;-43
2021/07/07 00:08:17;;;;;;;13.32;10.05;;;;;;;21.60;98.78;99440.41;3480168;28;20141;-43
2021/07/07 00:09:59;;;;;;;15.70;11.18;;;;;;;21.60;96.90;99445.69;3482659;28;20049;-44
2021/07/07 00:11:40;;;;;;;12.40;11.07;;;;;;;21.59;94.76;99449.22;3473155;28;20085;-43
2021/07/07 00:13:21;;;;;;;15.27;11.48;;;;;;;21.58;95.24;99448.38;3472125;28;20563;-43
2021/07/07 00:15:05;;;;;;;16.08;11.00;;;;;;;21.60;95.69;99448.34;3484376;28;20045;-44
2021/07/07 00:16:46;;;;;;;13.52;10.25;;;;;;;21.59;94.01;99446.59;3478420;28;20057;-43
2021/07/07 00:18:28;;;;;;;12.93;11.13;;;;;;;21.60;94.67;99451.81;3470332;28;20514;-43
2021/07/07 00:20:12;;;;;;;15.05;10.85;;;;;;;21.61;93.89;99456.22;3479231;28;20452;-44
2021/07/07 00:21:58;;;;;;;15.73;10.60;;;;;;;21.64;94.29;99460.53;3482314;28;20045;-44
2021/07/07 00:23:39;;;;;;;12.68;10.90;;;;;;;21.64;94.60;99456.09;3483034;28;20049;-44
2021/07/07 00:25:21;;;;;;;13.93;10.52;;;;;;;21.64;93.09;99448.19;3479700;28;20457;-44
2021/07/07 00:27:05;;;;;;;14.30;11.15;;;;;;;21.64;93.64;99455.25;3484505;28;20057;-43
2021/07/07 00:28:46;;;;;;;14.05;11.00;;;;;;;21.66;94.74;99460.47;3479668;28;20529;-43
2021/07/07 00:30:28;;;;;;;14.98;11.23;;;;;;;21.66;93.44;99463.13;3483886;28;20087;-44
2021/07/07 00:32:11;;;;;;;11.90;10.68;;;;;;;21.66;93.75;99452.56;3480178;28;20076;-43
2021/07/07 00:33:52;;;;;;;16.42;11.75;;;;;;;21.68;95.10;99456.00;3482100;28;20633;-44
2021/07/07 00:35:34;;;;;;;16.73;12.02;;;;;;;21.68;94.91;99462.13;3471875;28;20107;-44
2021/07/07 00:37:15;;;;;;;13.43;11.05;;;;;;;21.67;93.58;99462.22;3472404;28;20087;-43
2021/07/07 00:38:56;;;;;;;16.48;10.63;;;;;;;21.67;93.27;99463.06;3470273;28;20096;-44
2021/07/07 00:40:38;;;;;;;13.60;10.90;;;;;;;21.68;93.52;99470.06;3472909;28;20077;-43
2021/07/07 00:42:19;;;;;;;13.75;10.73;;;;;;;21.68;92.75;99469.19;3470143;28;20069;-44
2021/07/07 00:44:00;;;;;;;13.40;10.32;;;;;;;21.66;92.23;99461.34;3472688;28;20076;-44
2021/07/07 00:45:42;;;;;;;14.50;11.10;;;;;;;21.65;93.34;99464.91;3471861;28;20079;-45
2021/07/07 00:47:24;;;;;;;12.77;10.18;;;;;;;21.66;93.21;99463.13;3470896;28;20152;-43
2021/07/07 00:49:05;;;;;;;15.95;11.00;;;;;;;21.68;93.11;99471.84;3472463;28;20076;-44
2021/07/07 00:50:49;;;;;;;14.95;11.02;;;;;;;21.66;92.63;99463.97;3470277;28;20140;-43
2021/07/07 00:52:31;;;;;;;12.73;10.57;;;;;;;21.66;93.06;99468.41;3472368;28;20073;-45
2021/07/07 00:54:14;;;;;;;13.63;11.35;;;;;;;21.66;93.36;99463.13;3470135;28;20100;-43
2021/07/07 00:55:57;;;;;;;12.88;10.73;;;;;;;21.63;91.99;99464.09;3473322;28;20049;-44
2021/07/07 00:57:41;;;;;;;13.27;11.63;;;;;;;21.62;92.95;99468.50;3472326;28;20091;-44
2021/07/07 00:59:23;;;;;;;14.35;11.30;;;;;;;21.61;92.64;99474.72;3470947;28;20085;-43
2021/07/07 01:01:06;;;;;;;14.80;10.75;;;;;;;21.60;92.37;99467.66;3475892;28;20131;-43
2021/07/07 01:02:50;;;;;;;14.10;10.77;;;;;;;21.59;92.67;99476.47;3483978;28;20048;-44
2021/07/07 01:04:32;;;;;;;15.05;9.95;;;;;;;21.59;91.85;99475.63;3479450;28;20079;-43
2021/07/07 01:06:13;;;;;;;11.52;10.27;;;;;;;21.58;92.33;99477.41;3483048;28;20048;-44
2021/07/07 01:07:54;;;;;;;12.52;10.40;;;;;;;21.57;92.16;99473.03;3482282;28;20045;-43
2021/07/07 01:09:36;;;;;;;13.25;10.45;;;;;;;21.57;94.78;99467.75;3480427;28;20087;-44
2021/07/07 01:11:17;;;;;;;12.57;10.93;;;;;;;21.59;97.01;99473.00;3483012;28;20154;-43
2021/07/07 01:12:58;;;;;;;15.18;10.07;;;;;;;21.55;94.69;99474.88;3477708;28;20049;-44
2021/07/07 01:14:40;;;;;;;16.15;10.77;;;;;;;21.55;93.34;99474.88;3483662;28;20455;-43
2021/07/07 01:16:21;;;;;;;14.57;10.02;;;;;;;21.53;92.57;99475.84;3473451;28;20108;-43
2021/07/07 01:18:04;;;;;;;12.63;10.10;;;;;;;21.52;92.74;99471.47;3471459;28;20048;-44
2021/07/07 01:19:46;;;;;;;12.73;11.20;;;;;;;21.52;92.85;99479.41;3470982;28;20110;-43
2021/07/07 01:21:28;;;;;;;11.57;10.38;;;;;;;21.49;92.24;99477.75;3473498;28;20080;-43
2021/07/07 01:23:10;;;;;;;14.50;10.52;;;;;;;21.49;92.74;99476.84;3469984;28;20136;-43
2021/07/07 01:24:52;;;;;;;15.18;10.23;;;;;;;21.46;91.81;99476.06;3476087;28;20165;-43
2021/07/07 01:26:33;;;;;;;11.70;10.50;;;;;;;21.46;91.91;99483.97;3483160;28;20060;-44
2021/07/07 01:28:16;;;;;;;14.18;9.63;;;;;;;21.46;91.71;99486.59;3473315;28;20107;-43
2021/07/07 01:29:57;;;;;;;14.68;9.85;;;;;;;21.46;92.24;99477.84;3471644;28;20052;-43
2021/07/07 01:31:39;;;;;;;11.95;9.73;;;;;;;21.45;91.44;99484.03;3481456;28;20080;-44
2021/07/07 01:33:20;;;;;;;12.38;9.50;;;;;;;21.44;91.47;99479.69;3478884;28;20064;-43
2021/07/07 01:35:03;;;;;;;12.55;9.23;;;;;;;21.44;91.45;99475.25;3469837;28;20143;-43
2021/07/07 01:36:44;;;;;;;12.82;9.43;;;;;;;21.44;91.63;99483.16;3472511;28;20081;-44
2021/07/07 01:38:26;;;;;;;12.30;8.85;;;;;;;21.45;91.47;99484.03;3469510;28;20073;-44
2021/07/07 01:40:09;;;;;;;15.32;9.70;;;;;;;21.44;95.37;99485.81;3479488;28;20135;-43
2021/07/07 01:41:51;;;;;;;11.73;10.10;;;;;;;21.43;93.94;99484.06;3481000;28;20417;-45
2021/07/07 01:43:32;;;;;;;13.90;8.65;;;;;;;21.42;92.36;99487.63;3481351;28;20092;-43
2021/07/07 01:45:15;;;;;;;10.68;9.57;;;;;;;21.42;93.49;99484.16;3479612;28;20080;-43
2021/07/07 01:46:56;;;;;;;11.53;9.80;;;;;;;21.41;92.44;99480.63;3469927;28;20077;-44
2021/07/07 01:48:37;;;;;;;10.85;9.20;;;;;;;21.41;92.39;99492.97;3473029;28;20053;-43
2021/07/07 01:50:20;;;;;;;13.13;9.45;;;;;;;21.39;91.24;99486.88;3469679;28;20085;-43
2021/07/07 01:52:01;;;;;;;13.70;9.70;;;;;;;21.38;91.38;99491.31;3479420;28;20099;-43
2021/07/07 01:53:43;;;;;;;11.60;8.85;;;;;;;21.38;92.57;99486.03;3470640;28;20084;-44
2021/07/07 01:55:25;;;;;;;15.65;9.13;;;;;;;21.37;91.50;99492.22;3481438;28;20126;-43
2021/07/07 01:57:07;;;;;;;12.50;9.93;;;;;;;21.37;91.72;99492.22;3480243;28;20482;-43
2021/07/07 01:58:48;;;;;;;10.88;9.30;;;;;;;21.39;93.62;99500.06;3469343;28;20533;-43
2021/07/07 02:00:32;;;;;;;10.00;8.90;;;;;;;21.36;91.84;99493.09;3471705;28;20141;-43
2021/07/07 02:02:14;;;;;;;12.00;9.10;;;;;;;21.34;91.35;99499.38;3468729;28;20080;-43
2021/07/07 02:03:55;;;;;;;14.93;9.25;;;;;;;21.34;91.54;99507.28;3478533;28;20546;-44
2021/07/07 02:05:37;;;;;;;10.90;8.70;;;;;;;21.33;91.09;99506.44;3479318;28;20077;-44
2021/07/07 02:07:19;;;;;;;11.75;8.80;;;;;;;21.32;91.39;99504.69;3470266;28;20091;-43
2021/07/07 02:09:01;;;;;;;12.05;9.02;;;;;;;21.30;91.48;99506.53;3472775;28;20084;-43
2021/07/07 02:10:42;;;;;;;14.63;8.60;;;;;;;21.31;91.36;99504.72;3483096;28;20060;-44
2021/07/07 02:12:23;;;;;;;11.95;8.85;;;;;;;21.31;91.39;99499.47;3478470;28;20550;-44
2021/07/07 02:14:05;;;;;;;13.85;9.32;;;;;;;21.31;91.53;99505.59;3482308;28;20072;-43
2021/07/07 02:15:46;;;;;;;12.13;9.00;;;;;;;21.32;92.61;99514.38;3472498;28;20589;-43
2021/07/07 02:17:27;;;;;;;13.57;7.90;;;;;;;21.31;90.58;99510.88;3471089;28;20049;-43
2021/07/07 02:19:08;;;;;;;13.00;8.48;;;;;;;21.32;91.66;99512.59;3482512;28;20060;-43
2021/07/07 02:20:51;;;;;;;11.90;8.50;;;;;;;21.32;91.26;99517.03;3478771;28;20072;-43
2021/07/07 02:22:32;;;;;;;10.32;7.82;;;;;;;21.32;89.99;99512.59;3482871;28;20588;-43
2021/07/07 02:24:14;;;;;;;13.43;8.48;;;;;;;21.34;91.50;99525.75;3478586;28;20045;-43
2021/07/07 02:25:55;;;;;;;11.25;7.75;;;;;;;21.32;89.70;99517.03;3482642;28;20087;-44
2021/07/07 02:27:37;;;;;;;10.35;7.88;;;;;;;21.34;89.55;99516.06;3479045;28;20091;-43
2021/07/07 02:29:18;;;;;;;7.95;7.20;;;;;;;21.33;88.54;99513.47;3480671;28;20148;-43
2021/07/07 02:30:59;;;;;;;10.18;7.18;;;;;;;21.32;87.84;99514.38;3480788;28;20053;-43
2021/07/07 02:32:42;;;;;;;12.30;8.55;;;;;;;21.31;88.52;99516.16;3479192;28;20055;-43
2021/07/07 02:34:23;;;;;;;10.88;7.70;;;;;;;21.32;87.79;99515.25;3469251;28;20061;-44
2021/07/07 02:36:05;;;;;;;8.13;7.32;;;;;;;21.33;88.36;99524.91;3475440;28;20076;-43
2021/07/07 02:37:49;;;;;;;9.07;7.57;;;;;;;21.33;88.08;99524.00;3482428;28;20077;-44
2021/07/07 02:39:31;;;;;;;9.80;7.13;;;;;;;21.35;90.72;99525.72;3472056;28;20152;-43
2021/07/07 02:41:13;;;;;;;12.07;7.82;;;;;;;21.35;88.15;99522.22;3471462;28;20088;-43
2021/07/07 02:42:55;;;;;;;8.25;7.28;;;;;;;21.36;87.01;99527.41;3470274;28;20085;-43
2021/07/07 02:44:36;;;;;;;9.40;6.93;;;;;;;21.36;86.71;99522.13;3472292;28;20052;-43
2021/07/07 02:46:18;;;;;;;9.90;7.63;;;;;;;21.39;87.40;99522.03;3482620;28;20052;-43
2021/07/07 02:48:00;;;;;;;13.48;7.45;;;;;;;21.39;86.23;99527.31;3472864;28;20088;-44
2021/07/07 02:49:41;;;;;;;9.95;7.03;;;;;;;21.41;85.96;99529.91;3469135;28;20051;-43
2021/07/07 02:51:23;;;;;;;8.02;6.78;;;;;;;21.43;85.94;99533.34;3471839;28;20526;-43
2021/07/07 02:53:06;;;;;;;11.18;6.38;;;;;;;21.44;85.77;99537.75;3469196;28;20045;-44
2021/07/07 02:54:48;;;;;;;7.32;6.45;;;;;;;21.46;85.23;99538.53;3481161;28;20216;-42
2021/07/07 02:56:30;;;;;;;12.00;6.82;;;;;;;21.47;84.06;99534.97;3478072;28;20493;-42
2021/07/07 02:58:11;;;;;;;9.75;6.80;;;;;;;21.50;84.11;99536.66;3482582;28;20125;-43
2021/07/07 02:59:53;;;;;;;12.85;6.28;;;;;;;21.54;83.62;99538.28;3476800;28;20052;-43
2021/07/07 03:01:34;;;;;;;8.65;6.90;;;;;;;21.57;83.42;99538.19;3482474;28;20138;-43
2021/07/07 03:03:17;;;;;;;8.82;6.68;;;;;;;21.62;83.66;99536.28;3478410;28;20090;-43
2021/07/07 03:05:00;;;;;;;11.20;6.47;;;;;;;21.66;83.56;99535.25;3479920;28;20083;-43
2021/07/07 03:06:41;;;;;;;8.23;6.93;;;;;;;21.71;83.29;99546.53;3469788;28;20085;-43
2021/07/07 03:08:25;;;;;;;13.25;7.28;;;;;;;21.75;82.32;99542.84;3472410;28;20180;-42
2021/07/07 03:10:11;;;;;;;7.97;6.50;;;;;;;21.80;81.43;99542.72;3482728;28;20080;-43
2021/07/07 03:11:52;;;;;;;10.45;6.72;;;;;;;21.85;83.08;99547.84;3477707;28;20095;-43
2021/07/07 03:13:34;;;;;;;9.15;6.88;;;;;;;21.90;82.09;99549.41;3481374;28;20084;-43
2021/07/07 03:15:15;;;;;;;8.80;6.53;;;;;;;21.93;81.34;99546.66;3479338;28;20051;-43
2021/07/07 03:16:57;;;;;;;9.63;7.72;;;;;;;22.01;84.76;99556.94;3478911;28;20289;-43
2021/07/07 03:18:38;;;;;;;8.73;7.65;;;;;;;22.04;81.93;99553.34;3481623;28;20053;-42
2021/07/07 03:20:19;;;;;;;10.68;7.40;;;;;;;22.08;83.20;99553.16;3477963;28;20092;-43
2021/07/07 03:22:01;;;;;;;13.65;7.22;;;;;;;22.10;82.11;99553.97;3482421;28;20053;-43
2021/07/07 03:23:42;;;;;;;13.55;6.93;;;;;;;22.11;80.33;99561.00;3473966;28;20334;-43
2021/07/07 03:25:24;;;;;;;11.07;7.20;;;;;;;22.13;81.04;99563.59;3469490;28;20107;-42
2021/07/07 03:27:05;;;;;;;7.75;6.95;;;;;;;22.14;81.90;99566.19;3478725;28;20055;-42
2021/07/07 03:28:48;;;;;;;11.88;7.68;;;;;;;22.16;81.09;99556.41;3477689;28;20056;-42
2021/07/07 03:30:29;;;;;;;8.52;7.63;;;;;;;22.16;82.85;99553.78;3481848;28;20085;-43
2021/07/07 03:32:10;;;;;;;10.13;7.80;;;;;;;22.16;80.07;99555.53;3477190;28;20079;-43
2021/07/07 03:33:52;;;;;;;10.20;8.00;;;;;;;22.17;81.04;99557.28;3468588;28;20140;-43
2021/07/07 03:35:34;;;;;;;11.10;8.23;;;;;;;22.16;79.99;99561.69;3476351;28;20136;-43
2021/07/07 03:37:15;;;;;;;8.68;7.32;;;;;;;22.17;80.68;99565.19;3481612;28;20130;-43
2021/07/07 03:38:56;;;;;;;15.02;8.10;;;;;;;22.18;80.97;99572.22;3471101;28;20081;-42
2021/07/07 03:40:39;;;;;;;11.27;7.90;;;;;;;22.19;81.31;99572.16;3471374;28;20092;-43
2021/07/07 03:42:20;;;;;;;11.55;8.30;;;;;;;22.20;80.77;99573.88;3468835;28;20053;-42
2021/07/07 03:44:02;;;;;;;11.82;7.80;;;;;;;22.19;80.27;99572.16;3472663;28;20081;-42
2021/07/07 03:45:43;;;;;;;11.77;7.10;;;;;;;22.19;79.93;99576.56;3482120;28;20076;-42
2021/07/07 03:47:25;;;;;;;11.98;7.72;;;;;;;22.20;79.93;99578.31;3472731;28;20103;-45
2021/07/07 03:49:06;;;;;;;14.65;7.50;;;;;;;22.19;78.98;99573.94;3469431;28;20050;-42
2021/07/07 03:50:47;;;;;;;12.07;7.57;;;;;;;22.20;78.82;99578.31;3470180;28;20103;-42
2021/07/07 03:52:29;;;;;;;8.75;6.30;;;;;;;22.21;77.71;99582.66;3468899;28;22617;-43
2021/07/07 03:54:11;;;;;;;14.30;6.68;;;;;;;22.23;77.46;99574.69;3481050;28;20049;-43
2021/07/07 03:55:53;;;;;;;8.57;6.72;;;;;;;22.24;77.74;99581.69;3477802;28;20103;-42
2021/07/07 03:57:34;;;;;;;11.48;6.30;;;;;;;22.25;76.50;99578.13;3482312;28;20077;-42
2021/07/07 03:59:16;;;;;;;9.32;6.40;;;;;;;22.26;76.07;99578.06;3477450;28;20107;-44
2021/07/07 04:00:57;;;;;;;10.15;5.57;;;;;;;22.29;75.05;99577.97;3481685;28;20057;-42
2021/07/07 04:02:39;;;;;;;6.85;5.38;;;;;;;22.30;74.65;99571.78;3477915;28;20068;-42
2021/07/07 04:04:20;;;;;;;9.15;5.90;;;;;;;22.34;75.93;99576.03;3478554;28;20455;-42
2021/07/07 04:06:01;;;;;;;7.10;5.72;;;;;;;22.36;74.56;99581.25;3468136;28;20049;-42
2021/07/07 04:07:44;;;;;;;8.02;5.97;;;;;;;22.40;75.49;99582.88;3472049;28;20049;-42
2021/07/07 04:09:28;;;;;;;8.05;6.13;;;;;;;22.44;75.06;99580.97;3468207;28;20050;-42
2021/07/07 04:11:10;;;;;;;8.88;5.75;;;;;;;22.50;75.28;99583.44;3475932;28;20087;-41
2021/07/07 04:12:52;;;;;;;8.18;5.18;;;;;;;22.55;73.77;99587.63;3481232;28;20092;-42
2021/07/07 04:14:33;;;;;;;12.30;6.15;;;;;;;22.61;72.75;99588.31;3478454;28;20071;-42
2021/07/07 04:16:15;;;;;;;6.07;5.35;;;;;;;22.66;72.24;99583.72;3478761;28;20501;-42
2021/07/07 04:17:56;;;;;;;7.07;4.80;;;;;;;22.72;72.80;99600.22;3468621;28;20594;-42
2021/07/07 04:19:38;;;;;;;10.77;5.10;;;;;;;22.77;70.41;99586.81;3472065;28;20060;-42
2021/07/07 04:21:20;;;;;;;7.07;5.10;;;;;;;22.84;71.18;99587.47;3482140;28;20052;-43
2021/07/07 04:23:01;;;;;;;8.77;5.25;;;;;;;22.88;69.82;99582.00;3477463;28;20136;-42
2021/07/07 04:24:43;;;;;;;6.78;5.15;;;;;;;22.92;69.51;99578.31;3482406;28;20052;-42
2021/07/07 04:26:25;;;;;;;5.82;4.85;;;;;;;22.97;68.92;99588.69;3480388;28;20080;-42
2021/07/07 04:28:06;;;;;;;9.95;4.30;;;;;;;23.03;69.69;99588.47;3481890;28;20509;-42
2021/07/07 04:29:48;;;;;;;10.07;4.90;;;;;;;23.00;68.41;99593.03;3483320;28;20068;-42
2021/07/07 04:31:29;;;;;;;7.13;4.45;;;;;;;22.93;69.63;99592.41;3479625;28;20060;-42
2021/07/07 04:33:11;;;;;;;10.57;4.50;;;;;;;22.87;67.89;99587.34;3484168;28;20199;-42
2021/07/07 04:34:53;;;;;;;6.30;4.65;;;;;;;22.78;67.92;99597.34;3475831;28;20466;-42
2021/07/07 04:36:35;;;;;;;7.05;4.78;;;;;;;22.72;69.03;99602.00;3471469;28;20127;-42
2021/07/07 04:38:16;;;;;;;10.57;5.13;;;;;;;22.65;68.88;99592.56;3473168;28;20060;-41
2021/07/07 04:39:58;;;;;;;5.75;4.85;;;;;;;22.63;69.26;99600.56;3472027;28;20073;-43
2021/07/07 04:41:41;;;;;;;6.63;4.15;;;;;;;22.63;71.43;99599.72;3470843;28;20560;-41
2021/07/07 04:43:22;;;;;;;5.75;4.93;;;;;;;22.61;69.66;99602.41;3474080;28;20516;-42
2021/07/07 04:45:04;;;;;;;7.60;4.65;;;;;;;22.60;69.99;99598.06;3484061;28;20501;-42
2021/07/07 04:46:46;;;;;;;6.50;4.80;;;;;;;22.60;69.59;99605.97;3479493;28;20099;-42
2021/07/07 04:48:27;;;;;;;8.13;4.80;;;;;;;22.57;67.97;99604.28;3483438;28;20048;-42
2021/07/07 04:50:12;;;;;;;8.07;4.40;;;;;;;22.56;68.49;99607.84;3471814;28;20060;-42
2021/07/07 04:51:53;;;;;;;5.78;3.97;;;;;;;22.57;67.91;99612.22;3472509;28;20143;-41
2021/07/07 04:53:34;;;;;;;5.40;3.95;;;;;;;22.59;69.59;99612.19;3468785;28;20135;-42
2021/07/07 04:55:17;;;;;;;7.85;3.97;;;;;;;22.62;70.09;99609.44;3472548;28;20057;-41
2021/07/07 04:56:59;;;;;;;10.90;4.47;;;;;;;22.70;73.74;99614.44;3470366;28;20053;-42
2021/07/07 04:58:41;;;;;;;7.38;4.53;;;;;;;22.75;69.34;99612.47;3477826;28;20540;-42
2021/07/07 05:00:23;;;;;;;5.93;4.00;;;;;;;22.82;69.15;99616.59;3483125;28;20080;-41
2021/07/07 05:02:05;;;;;;;8.35;4.03;;;;;;;22.91;69.99;99613.59;3471897;28;20564;-42
2021/07/07 05:03:46;;;;;;;5.53;4.38;;;;;;;23.00;69.51;99620.34;3472865;28;20076;-41
2021/07/07 05:05:28;;;;;;;6.38;3.83;;;;;;;23.10;69.94;99618.22;3483271;28;20044;-42
2021/07/07 05:07:16;;;;;;;6.57;4.05;;;;;;;23.21;67.45;99621.28;3476465;28;20054;-41
2021/07/07 05:08:58;;;;;;;5.22;4.05;;;;;;;23.34;66.49;99622.59;3470174;28;20056;-42
2021/07/07 05:10:39;;;;;;;6.50;3.85;;;;;;;23.47;67.07;99624.75;3478701;28;20568;-41
2021/07/07 05:12:21;;;;;;;5.35;4.03;;;;;;;23.58;66.08;99627.81;3481754;28;20053;-42
2021/07/07 05:14:03;;;;;;;8.80;3.75;;;;;;;23.64;64.04;99638.16;3481400;28;20060;-41
2021/07/07 05:15:46;;;;;;;4.07;3.67;;;;;;;23.68;63.68;99636.25;3479464;28;20096;-41
2021/07/07 05:17:27;;;;;;;6.05;3.30;;;;;;;23.67;63.41;99639.81;3483538;28;20122;-42
2021/07/07 05:19:09;;;;;;;7.07;3.78;;;;;;;23.67;62.98;99637.16;3479051;28;20490;-42
2021/07/07 05:20:51;;;;;;;4.60;4.10;;;;;;;23.67;62.06;99638.03;3483650;28;20504;-42
2021/07/07 05:22:32;;;;;;;4.88;3.38;;;;;;;23.70;62.95;99637.03;3479309;28;20140;-42
2021/07/07 05:24:13;;;;;;;5.95;3.75;;;;;;;23.74;61.63;99641.28;3481865;28;20071;-41
2021/07/07 05:25:55;;;;;;;6.05;3.80;;;;;;;23.78;62.91;99648.16;3481113;28;20049;-42
2021/07/07 05:27:37;;;;;;;6.70;3.88;;;;;;;23.84;63.79;99645.28;3479422;28;20306;-42
2021/07/07 05:29:19;;;;;;;14.93;4.10;;;;;;;23.86;61.81;99651.38;3483458;28;20144;-41
2021/07/07 05:31:04;;;;;;;5.85;3.78;;;;;;;23.88;62.29;99644.22;3477413;28;20088;-42
2021/07/07 05:32:46;;;;;;;5.63;3.75;;;;;;;23.89;63.75;99645.97;3469734;28;20064;-42
2021/07/07 05:34:27;;;;;;;6.28;4.10;;;;;;;23.91;61.92;99649.41;3479516;28;20060;-41
2021/07/07 05:36:10;;;;;;;8.27;4.32;;;;;;;23.92;62.24;99652.91;3480339;28;20146;-42
2021/07/07 05:37:51;;;;;;;7.82;4.03;;;;;;;23.96;62.83;99651.00;3483046;28;20049;-42
2021/07/07 05:39:33;;;;;;;4.70;3.80;;;;;;;24.00;64.74;99656.09;3478117;28;20072;-42
2021/07/07 05:41:15;;;;;;;5.28;4.57;;;;;;;24.07;64.07;99656.75;3469690;28;20143;-42
2021/07/07 05:42:57;;;;;;;6.70;4.13;;;;;;;24.19;63.82;99658.88;3473632;28;20072;-42
2021/07/07 05:44:38;;;;;;;6.10;4.25;;;;;;;24.35;63.12;99659.09;3470431;28;20417;-42
2021/07/07 05:46:20;;;;;;;4.15;3.65;;;;;;;24.50;62.71;99657.53;3480390;28;20160;-42
2021/07/07 05:48:02;;;;;;;4.90;3.83;;;;;;;24.66;61.12;99666.56;3479332;28;20147;-42
2021/07/07 05:49:45;;;;;;;6.13;3.80;;;;;;;24.77;57.73;99660.78;3482406;28;20052;-42
2021/07/07 05:51:26;;;;;;;5.32;3.53;;;;;;;24.92;58.93;99658.38;3478865;28;20045;-42
2021/07/07 05:53:08;;;;;;;5.45;4.13;;;;;;;25.03;58.67;99672.00;3473647;28;20045;-43
2021/07/07 05:54:49;;;;;;;5.57;3.92;;;;;;;25.10;59.68;99667.28;3477898;28;20179;-42
2021/07/07 05:56:30;;;;;;;5.82;3.25;;;;;;;25.09;56.93;99668.22;3482022;28;20081;-42
2021/07/07 05:58:12;;;;;;;4.13;3.35;;;;;;;25.08;58.33;99675.31;3470992;28;20100;-42
2021/07/07 05:59:54;;;;;;;8.57;4.05;;;;;;;25.00;56.68;99672.16;3471105;28;20163;-42
2021/07/07 06:01:35;;;;;;;8.25;3.40;;;;;;;24.91;55.76;99675.22;3482254;28;20072;-42
2021/07/07 06:03:17;;;;;;;7.75;3.40;;;;;;;24.85;55.28;99668.41;3480831;28;20066;-42
2021/07/07 06:04:58;;;;;;;7.72;3.33;;;;;;;24.83;57.47;99675.59;3483115;28;20502;-42
2021/07/07 06:06:39;;;;;;;4.93;3.38;;;;;;;24.94;56.81;99677.75;3478848;28;20073;-42
2021/07/07 06:08:21;;;;;;;4.75;3.13;;;;;;;25.10;58.18;99676.09;3482230;28;20171;-42
2021/07/07 06:10:02;;;;;;;4.50;2.80;;;;;;;25.22;54.69;99674.69;3471042;28;20103;-42
2021/07/07 06:11:44;;;;;;;8.73;3.08;;;;;;;25.35;53.71;99674.97;3470896;28;20053;-43
2021/07/07 06:13:26;;;;;;;6.65;3.13;;;;;;;25.41;51.48;99680.84;3482638;28;20088;-45
2021/07/07 06:15:09;;;;;;;4.25;2.50;;;;;;;25.56;54.86;99679.28;3477853;28;20041;-45
2021/07/07 06:16:51;;;;;;;5.13;2.95;;;;;;;25.68;51.39;99683.16;3469334;28;20084;-43
2021/07/07 06:18:33;;;;;;;5.18;2.70;;;;;;;25.78;50.37;99681.78;3477262;28;20139;-42
2021/07/07 06:20:16;;;;;;;6.53;3.05;;;;;;;25.88;49.65;99682.16;3480395;28;20498;-43
2021/07/07 06:22:00;;;;;;;6.93;2.78;;;;;;;25.95;50.82;99680.94;3480418;28;20087;-43
2021/07/07 06:23:41;;;;;;;5.47;2.80;;;;;;;26.02;52.18;99683.28;3477937;28;20585;-44
2021/07/07 06:25:23;;;;;;;6.72;3.00;;;;;;;26.11;52.50;99689.00;3469055;28;20518;-42
2021/07/07 06:27:05;;;;;;;5.68;2.80;;;;;;;26.16;50.23;99688.75;3474339;28;20095;-43
2021/07/07 06:28:47;;;;;;;7.10;3.00;;;;;;;26.17;51.00;99683.38;3482826;28;20153;-42
2021/07/07 06:30:29;;;;;;;9.18;2.78;;;;;;;26.19;50.88;99687.75;3473452;28;20148;-42
2021/07/07 06:32:10;;;;;;;5.20;2.92;;;;;;;26.22;50.26;99693.78;3470162;28;20053;-43
2021/07/07 06:33:51;;;;;;;3.08;2.63;;;;;;;26.35;50.99;99688.72;3480352;28;20056;-43
2021/07/07 06:35:36;;;;;;;8.68;3.25;;;;;;;26.42;49.36;99690.13;3480554;28;20076;-43
2021/07/07 06:37:17;;;;;;;3.78;2.70;;;;;;;26.50;51.11;99689.72;3469117;28;20099;-43
2021/07/07 06:38:58;;;;;;;9.05;3.60;;;;;;;26.59;49.59;99688.38;3472431;28;20081;-42
2021/07/07 06:40:39;;;;;;;6.13;2.83;;;;;;;26.64;50.40;99697.88;3469000;28;20176;-43
2021/07/07 06:42:21;;;;;;;5.20;3.00;;;;;;;26.69;51.89;99692.28;3471586;28;20077;-44
2021/07/07 06:44:03;;;;;;;4.18;3.00;;;;;;;26.67;50.20;99694.19;3469827;28;20088;-42
2021/07/07 06:45:45;;;;;;;4.25;2.78;;;;;;;26.59;49.46;99701.69;3471668;28;20095;-43
2021/07/07 06:47:26;;;;;;;4.05;2.92;;;;;;;26.52;49.03;99691.38;3470250;28;20076;-43
2021/07/07 06:49:08;;;;;;;4.25;3.13;;;;;;;26.53;50.55;99698.41;3482801;28;20080;-43
2021/07/07 06:50:49;;;;;;;6.28;3.00;;;;;;;26.51;50.39;99694.97;3478045;28;20091;-43
2021/07/07 06:52:30;;;;;;;7.00;3.40;;;;;;;26.49;48.46;99696.84;3478106;28;20084;-45
2021/07/07 06:54:12;;;;;;;4.10;2.83;;;;;;;26.49;48.63;99696.00;3477333;28;20479;-44
2021/07/07 06:55:53;;;;;;;7.93;3.15;;;;;;;26.52;49.56;99701.19;3480950;28;20041;-43
2021/07/07 06:57:35;;;;;;;4.63;2.85;;;;;;;26.59;49.51;99696.38;3470799;28;20100;-44
2021/07/07 06:59:19;;;;;;;3.67;2.70;;;;;;;26.67;49.16;99700.34;3470546;28;20049;-43
2021/07/07 07:01:00;;;;;;;5.38;2.60;;;;;;;26.77;49.63;99692.75;3482530;28;20076;-43
2021/07/07 07:02:42;;;;;;;4.22;2.90;;;;;;;26.86;46.34;99702.91;3478178;28;20107;-43
2021/07/07 07:04:24;;;;;;;8.50;2.95;;;;;;;27.00;46.07;99694.22;3482747;28;20053;-43
2021/07/07 07:06:05;;;;;;;5.00;2.80;;;;;;;27.14;47.43;99698.81;3470897;28;20045;-43
2021/07/07 07:07:47;;;;;;;4.10;2.80;;;;;;;27.24;46.26;99697.38;3469611;28;20407;-43
2021/07/07 07:09:29;;;;;;;8.07;3.25;;;;;;;27.29;46.08;99689.97;3479981;28;20134;-43
2021/07/07 07:11:12;;;;;;;5.75;3.05;;;;;;;27.41;46.88;99696.41;3478113;28;20071;-43
2021/07/07 07:12:54;;;;;;;9.30;3.30;;;;;;;27.55;47.08;99689.47;3482236;28;20080;-43
2021/07/07 07:14:37;;;;;;;5.68;2.65;;;;;;;27.66;47.81;99695.91;3478053;28;20056;-44
2021/07/07 07:16:19;;;;;;;5.25;3.05;;;;;;;27.77;48.28;99695.34;3482512;28;20049;-43
2021/07/07 07:18:00;;;;;;;3.70;2.72;;;;;;;27.83;47.58;99699.44;3478110;28;20098;-42
2021/07/07 07:19:41;;;;;;;9.55;2.90;;;;;;;27.85;45.45;99698.41;3480457;28;20051;-43
2021/07/07 07:21:23;;;;;;;6.03;2.85;;;;;;;27.86;44.22;99702.81;3471035;28;20053;-43
2021/07/07 07:23:04;;;;;;;4.47;3.05;;;;;;;27.88;45.16;99699.16;3471344;28;20073;-45
2021/07/07 07:24:46;;;;;;;8.73;2.80;;;;;;;27.94;45.16;99701.50;3468760;28;20054;-43
2021/07/07 07:26:28;;;;;;;3.90;2.50;;;;;;;28.02;45.80;99697.44;3472041;28;20479;-43
2021/07/07 07:28:09;;;;;;;4.75;2.53;;;;;;;28.08;44.98;99696.22;3468620;28;20507;-43
2021/07/07 07:29:51;;;;;;;6.72;3.00;;;;;;;28.14;46.74;99701.22;3470851;28;20542;-43
2021/07/07 07:31:33;;;;;;;4.75;2.58;;;;;;;28.23;46.66;99692.66;3469777;28;20133;-44
2021/07/07 07:33:14;;;;;;;6.30;2.63;;;;;;;28.32;45.40;99693.06;3470687;28;20191;-43
2021/07/07 07:34:56;;;;;;;8.52;3.15;;;;;;;28.42;46.10;99695.13;3470643;28;20051;-43
2021/07/07 07:36:37;;;;;;;7.18;3.70;;;;;;;28.57;47.50;99692.47;3482259;28;20076;-43
2021/07/07 07:38:27;;;;;;;8.05;3.42;;;;;;;28.64;44.82;99692.94;3475046;28;20527;-43
2021/07/07 07:40:10;;;;;;;6.97;2.72;;;;;;;28.59;42.87;99691.41;3468786;28;20410;-43
2021/07/07 07:41:52;;;;;;;7.18;2.83;;;;;;;28.60;43.72;99692.28;3478053;28;20091;-43
2021/07/07 07:43:34;;;;;;;3.53;2.60;;;;;;;28.65;45.57;99692.84;3480120;28;20048;-43
2021/07/07 07:45:15;;;;;;;4.18;3.05;;;;;;;28.67;44.96;99698.09;3482028;28;20139;-43
2021/07/07 07:46:58;;;;;;;3.85;2.60;;;;;;;28.76;45.71;99693.06;3478046;28;20081;-44
2021/07/07 07:48:40;;;;;;;4.95;3.10;;;;;;;28.82;44.23;99699.84;3481939;28;20541;-43
2021/07/07 07:50:22;;;;;;;5.10;2.80;;;;;;;28.86;44.09;99697.84;3477608;28;20106;-43
2021/07/07 07:52:05;;;;;;;4.15;2.80;;;;;;;28.93;45.00;99693.88;3481698;28;20128;-43
2021/07/07 07:53:47;;;;;;;2.95;2.63;;;;;;;28.95;43.12;99699.97;3477417;28;20238;-43
2021/07/07 07:55:29;;;;;;;5.47;3.00;;;;;;;29.02;46.60;99703.97;3479151;28;20574;-44
2021/07/07 07:57:10;;;;;;;4.57;2.80;;;;;;;29.05;44.32;99703.78;3468261;28;20104;-44